Flight Track Log - Related Links

Times and Time Zones

All times are in EST time to prevent confusion due to time zone crossing. See the FIN666 flight status page for this flight to view local times or setup timezone preferences in your user account.

Time Position Orientation Groundspeed Altitude Reporting Facility
EST Latitude Longitude Course Direction KTS MPH feet Rate Location/Type
Thu 07:26:00 AM 55.9003 13.2410 49° Northeast  Level Estimated
Thu 07:27:00 AM 55.9705 13.3886 50° Northeast  Level Estimated
Thu 07:28:00 AM 56.0405 13.5368 50° Northeast  Level Estimated
Thu 07:29:00 AM 56.1122 13.6896 50° Northeast  Level Estimated
Thu 07:30:00 AM 56.1837 13.8430 50° Northeast  Level Estimated
Thu 07:31:00 AM 56.2551 13.9969 50° Northeast  Level Estimated
Thu 07:32:00 AM 56.3263 14.1515 50° Northeast  Level Estimated
Thu 07:33:00 AM 56.3973 14.3066 50° Northeast  Level Estimated
Thu 07:34:00 AM 56.4680 14.4622 51° Northeast  Level Estimated
Thu 07:35:00 AM 56.5386 14.6185 51° Northeast  Level Estimated
Thu 07:36:00 AM 56.6090 14.7753 51° Northeast  Level Estimated
Thu 07:37:00 AM 56.6792 14.9328 51° Northeast  Level Estimated
Thu 07:38:00 AM 56.7492 15.0908 51° Northeast  Level Estimated
Thu 07:39:00 AM 56.8190 15.2494 51° Northeast  Level Estimated
Thu 07:40:00 AM 56.8886 15.4086 51° Northeast  Level Estimated
Thu 07:41:00 AM 56.9580 15.5684 51° Northeast  Level Estimated
Thu 07:42:00 AM 57.0271 15.7288 52° Northeast  Level Estimated
Thu 07:43:00 AM 57.0961 15.8898 52° Northeast  Level Estimated
Thu 07:44:00 AM 57.1649 16.0513 52° Northeast  Level Estimated
Thu 07:45:00 AM 57.2335 16.2135 52° Northeast  Level Estimated
Thu 07:46:00 AM 57.3018 16.3763 52° Northeast  Level Estimated
Thu 07:47:00 AM 57.3699 16.5397 52° Northeast  Level Estimated
Thu 07:48:00 AM 57.4379 16.7037 52° Northeast  Level Estimated
Thu 07:49:00 AM 57.5047 16.8661 53° Northeast  Level Estimated
Thu 07:50:00 AM 57.5712 17.0290 53° Northeast  Level Estimated
Thu 07:51:00 AM 57.6376 17.1925 53° Northeast  Level Estimated
Thu 07:52:00 AM 57.7038 17.3567 53° Northeast  Level Estimated
Thu 07:53:00 AM 57.7697 17.5214 53° Northeast  Level Estimated
Thu 07:54:00 AM 57.8354 17.6868 53° Northeast  Level Estimated
Thu 07:55:00 AM 57.9010 17.8527 53° Northeast  Level Estimated
Thu 07:56:00 AM 57.9663 18.0192 53° Northeast  Level Estimated
Thu 07:57:00 AM 58.0313 18.1864 54° Northeast  Level Estimated
Thu 07:58:00 AM 58.0962 18.3542 54° Northeast  Level Estimated
Thu 07:59:00 AM 58.1609 18.5225 54° Northeast  Level Estimated
Thu 08:00:00 AM 58.2253 18.6915 54° Northeast  Level Estimated
Thu 08:01:00 AM 58.2895 18.8611 54° Northeast  Level Estimated
Thu 08:02:00 AM 58.3534 19.0313 54° Northeast  Level Estimated
Thu 08:03:00 AM 58.4172 19.2021 54° Northeast  Level Estimated
Thu 08:04:00 AM 58.4807 19.3736 55° Northeast  Level Estimated
Thu 08:05:00 AM 58.5440 19.5457 55° Northeast  Level Estimated
Thu 08:06:00 AM 58.6070 19.7183 55° Northeast  Level Estimated
Thu 08:07:00 AM 58.6698 19.8917 55° Northeast  Level Estimated
Thu 08:08:00 AM 58.7324 20.0656 55° Northeast  Level Estimated
Thu 08:09:00 AM 58.7948 20.2402 55° Northeast  Level Estimated
Thu 08:10:00 AM 58.8569 20.4153 56° Northeast  Level Estimated
Thu 08:11:00 AM 58.9188 20.5912 56° Northeast  Level Estimated
Thu 08:12:00 AM 58.9804 20.7676 56° Northeast  Level Estimated
Thu 08:13:00 AM 59.0418 20.9447 56° Northeast  Level Estimated
Thu 08:14:00 AM 59.1030 21.1224 56° Northeast  Level Estimated
Thu 08:15:00 AM 59.1639 21.3008 56° Northeast  Level Estimated
Thu 08:16:00 AM 59.2245 21.4797 56° Northeast  Level Estimated
Thu 08:17:00 AM 59.2849 21.6594 57° Northeast  Level Estimated
Thu 08:18:00 AM 59.3451 21.8396 57° Northeast  Level Estimated
Thu 08:19:00 AM 59.4050 22.0205 57° Northeast  Level Estimated
Thu 08:20:00 AM 59.4647 22.2020 57° Northeast  Level Estimated
Thu 08:21:00 AM 59.5241 22.3842 57° Northeast  Level Estimated
Thu 08:22:00 AM 59.5833 22.5670 57° Northeast  Level Estimated
Thu 08:23:00 AM 59.6422 22.7505 58° Northeast  Level Estimated
Thu 08:24:00 AM 59.7008 22.9346 58° Northeast  Level Estimated
Thu 08:25:00 AM 59.7592 23.1193 58° Northeast  Level Estimated
Thu 08:26:00 AM 59.8174 23.3047 58° Northeast  Level Estimated
Thu 08:27:00 AM 59.8752 23.4908 58° Northeast  Level Estimated
Thu 08:28:00 AM 59.9328 23.6775 58° Northeast  Level Estimated
Thu 08:29:00 AM 59.9902 23.8648 58° Northeast  Level Estimated
Thu 08:30:00 AM 60.0472 24.0528 59° Northeast  Level Estimated
Thu 08:31:00 AM 60.1041 24.2414 59° Northeast  Level Estimated
Thu 08:32:00 AM 60.1606 24.4307 59° Northeast  Level Estimated
Thu 08:33:00 AM 60.2169 24.6206 59° Northeast  Level Estimated
Thu 08:34:00 AM 60.2729 24.8112 59° Northeast  Level Estimated
Thu 08:35:00 AM 60.3172 24.9633 59° Northeast  Level Estimated
Thu 08:36:00 AM 60.3172 24.9633 37° Northeast  Level Estimated
Thu 08:37:00 AM 60.3172 24.9633 37° Northeast  Level Estimated
Thu 08:38:00 AM 60.3172 24.9633 37° Northeast  Level Estimated
Thu 08:39:00 AM 60.3172 24.9633 37° Northeast  Level Estimated
Thu 08:40:00 AM 60.3172 24.9633 37° Northeast  Level Estimated
Thu 08:41:00 AM 60.3172 24.9633 37° Northeast  Level Estimated
Thu 08:42:00 AM 60.3172 24.9633 37° Northeast  Level Estimated
Thu 08:43:00 AM 60.3172 24.9633 37° Northeast  Level Estimated
Thu 08:44:00 AM 60.3172 24.9633 37° Northeast  Level Estimated
Thu 08:45:00 AM 60.3172 24.9633 37° Northeast  Level Estimated
Thu 08:46:00 AM 60.3172 24.9633 37° Northeast  Level Estimated
Thu 08:47:00 AM 60.3172 24.9633 37° Northeast  Level Estimated

Login

Don't have an account? Register now (free) for customized features, flight alerts, and more!